4  °C
Temperature
2  °C
  Dewpoint
   Humidity
Temp | Dewpoint | Humidity
13  km/h
Wind Speed
8  mph
Wind Speed
7  kts
Wind Speed
240°
West South
West

Wind Speed
Partly Cloudy
Conditions
Pressure 983.92 (hPa) - 29.06 (in)
Visibility 6.2 (mi) - 10.0 (km)

Current Conditions
EGTE
Location 6km (3.2mi)
Metar :EGTE 210120Z 24007KT 9999 FEW020 04/02 Q0984
Thu 21st January 01:20 am

Airport
  Metar Aviation API Data Provided by https://www.checkwx.com/ CSS/SVG/PHP scripts by weather34.com © 2015-2021